Time;durP1;ratioP1;P1;durP2;ratioP2;P2;SDS_P1;SDS_P2;PMS_P1;PMS_P2;Temp;Humidity;BMP_temperature;BMP_pressure;BME280_temperature;BME280_humidity;BME280_pressure;Samples;Min_cycle;Max_cycle;Signal;HPM_P1;HPM_P2
2022/04/23 00:00:09;;;;;;;32.00;23.30;;;;;;;12.02;57.96;100008.53;690476;28;1327;-81
2022/04/23 00:00:38;;;;;;;33.05;23.30;;;;;;;11.95;58.00;99996.25;685204;28;1107;-80
2022/04/23 00:00:59;;;;;;;34.05;23.60;;;;;;;12.00;57.82;100004.13;690531;28;1185;-81
2022/04/23 00:01:19;;;;;;;32.77;23.33;;;;;;;11.98;57.96;100005.88;691920;28;1392;-81
2022/04/23 00:01:42;;;;;;;33.53;23.85;;;;;;;11.96;58.04;99998.00;690589;28;1292;-81
2022/04/23 00:02:03;;;;;;;33.75;24.20;;;;;;;11.99;57.75;99998.03;692051;28;1618;-80
2022/04/23 00:02:23;;;;;;;32.72;23.98;;;;;;;11.96;58.04;99992.78;687897;28;776;-80
2022/04/23 00:02:44;;;;;;;30.90;23.38;;;;;;;12.07;58.17;100022.50;687972;28;1070;-81
2022/04/23 00:03:05;;;;;;;31.40;23.60;;;;;;;11.97;57.88;100002.38;688199;28;1329;-80
2022/04/23 00:03:25;;;;;;;31.63;23.55;;;;;;;11.98;57.83;100005.88;688027;28;783;-81
2022/04/23 00:03:46;;;;;;;32.33;24.05;;;;;;;11.88;58.19;100003.16;685511;28;1384;-81
2022/04/23 00:04:07;;;;;;;32.03;23.70;;;;;;;11.93;58.06;100008.44;689099;28;1143;-80
2022/04/23 00:04:30;;;;;;;33.90;24.08;;;;;;;11.90;58.47;100004.06;685379;28;736;-80
2022/04/23 00:04:51;;;;;;;33.58;23.67;;;;;;;11.93;58.15;99996.22;687784;28;1345;-81
2022/04/23 00:05:11;;;;;;;31.77;23.38;;;;;;;11.95;58.09;100005.81;691636;28;1671;-81
2022/04/23 00:05:32;;;;;;;30.50;23.02;;;;;;;11.95;58.19;100000.59;687873;28;1277;-81
2022/04/23 00:05:53;;;;;;;32.53;22.90;;;;;;;11.98;58.06;100011.97;683975;28;1251;-81
2022/04/23 00:06:14;;;;;;;33.30;23.33;;;;;;;11.88;57.96;99990.09;689334;28;1225;-80
2022/04/23 00:06:35;;;;;;;35.40;24.20;;;;;;;11.93;58.28;100008.44;690515;28;1297;-81
2022/04/23 00:06:58;;;;;;;35.30;24.60;;;;;;;11.90;58.09;100000.56;688125;28;751;-80
2022/04/23 00:07:19;;;;;;;35.05;24.40;;;;;;;11.90;58.17;100003.16;685044;28;1206;-81
2022/04/23 00:07:40;;;;;;;34.50;24.65;;;;;;;11.99;58.62;100015.47;682436;29;1022;-81
2022/04/23 00:08:00;;;;;;;33.60;24.17;;;;;;;11.93;58.27;100008.44;688077;28;760;-80
2022/04/23 00:08:22;;;;;;;31.83;23.20;;;;;;;11.88;58.16;100003.16;685175;28;1146;-82
2022/04/23 00:08:42;;;;;;;33.43;23.33;;;;;;;11.88;58.39;99994.44;685116;28;1202;-80
2022/04/23 00:09:03;;;;;;;35.40;24.47;;;;;;;11.92;57.93;100011.88;685800;28;1588;-80
2022/04/23 00:09:25;;;;;;;35.97;24.75;;;;;;;11.87;58.43;100003.16;687731;28;1167;-81
2022/04/23 00:09:46;;;;;;;34.38;24.17;;;;;;;11.87;58.39;100005.75;687330;28;1249;-81
2022/04/23 00:10:08;;;;;;;33.00;23.40;;;;;;;11.93;58.19;100008.44;685836;28;1346;-81
2022/04/23 00:10:29;;;;;;;31.95;22.95;;;;;;;11.87;58.43;100000.53;687943;28;858;-81
2022/04/23 00:10:49;;;;;;;31.27;22.90;;;;;;;11.91;58.28;100000.56;688925;28;1181;-81
2022/04/23 00:11:10;;;;;;;31.60;23.20;;;;;;;11.89;58.25;99997.06;688890;28;1125;-81
2022/04/23 00:11:30;;;;;;;32.65;23.50;;;;;;;11.89;58.21;100006.66;690546;28;772;-80
2022/04/23 00:11:55;;;;;;;33.38;23.63;;;;;;;11.85;58.31;99990.03;685182;28;1191;-81
2022/04/23 00:12:16;;;;;;;33.55;23.27;;;;;;;11.85;58.47;99994.41;686522;28;1269;-81
2022/04/23 00:12:37;;;;;;;32.30;22.70;;;;;;;11.97;58.46;100011.97;687934;28;1278;-81
2022/04/23 00:12:59;;;;;;;30.80;23.10;;;;;;;11.86;58.34;99997.03;682610;28;1347;-80
2022/04/23 00:13:20;;;;;;;30.85;23.10;;;;;;;11.87;58.31;100003.16;689955;28;1128;-80
2022/04/23 00:13:40;;;;;;;31.90;23.60;;;;;;;11.88;58.48;100005.78;688957;28;1742;-80
2022/04/23 00:14:01;;;;;;;32.63;23.60;;;;;;;11.84;58.20;99995.25;692445;28;1599;-81
2022/04/23 00:14:22;;;;;;;33.72;23.80;;;;;;;11.82;58.29;99994.38;687923;28;1398;-80
2022/04/23 00:14:43;;;;;;;34.05;24.15;;;;;;;11.92;58.18;100009.28;687876;28;1247;-80
2022/04/23 00:15:06;;;;;;;33.75;24.40;;;;;;;11.88;58.31;100004.91;685735;28;1397;-81
2022/04/23 00:15:28;;;;;;;32.40;23.75;;;;;;;11.88;58.56;100004.91;687802;28;1264;-80
2022/04/23 00:15:49;;;;;;;31.73;23.60;;;;;;;11.85;58.29;99999.66;687879;28;1033;-80
2022/04/23 00:16:10;;;;;;;31.35;23.60;;;;;;;11.77;58.47;99990.00;687593;28;1697;-80
2022/04/23 00:16:32;;;;;;;33.47;24.57;;;;;;;11.79;58.50;100000.44;687860;28;1184;-81
2022/04/23 00:16:53;;;;;;;32.95;24.02;;;;;;;11.79;58.35;100003.06;690577;28;1163;-80
2022/04/23 00:17:13;;;;;;;31.67;23.63;;;;;;;11.78;58.43;100009.13;690242;28;1233;-80
2022/04/23 00:17:36;;;;;;;31.20;23.05;;;;;;;11.75;58.49;100002.13;682402;28;1117;-81
2022/04/23 00:17:56;;;;;;;31.88;23.42;;;;;;;11.79;58.54;100006.56;687856;28;1238;-80
2022/04/23 00:18:18;;;;;;;30.83;22.88;;;;;;;11.83;58.54;100012.69;690203;28;1705;-80
2022/04/23 00:18:38;;;;;;;30.63;22.92;;;;;;;11.77;58.52;100008.28;690401;28;1693;-80
2022/04/23 00:18:59;;;;;;;31.47;23.07;;;;;;;11.81;58.49;100019.66;690663;28;941;-81
2022/04/23 00:19:21;;;;;;;33.13;23.80;;;;;;;11.79;58.66;100014.41;690018;28;1924;-80
2022/04/23 00:19:44;;;;;;;32.90;24.20;;;;;;;11.79;58.66;100010.88;690049;28;999;-80
2022/04/23 00:20:05;;;;;;;33.70;24.13;;;;;;;11.78;58.80;100015.25;692165;28;1313;-80
2022/04/23 00:20:29;;;;;;;33.45;24.05;;;;;;;11.70;58.61;100009.06;687946;28;855;-80
2022/04/23 00:20:50;;;;;;;33.38;23.65;;;;;;;11.70;58.67;100002.97;685079;28;1413;-80
2022/04/23 00:21:11;;;;;;;32.80;23.52;;;;;;;11.76;58.94;100011.75;688219;28;1726;-80
2022/04/23 00:21:31;;;;;;;31.90;23.20;;;;;;;11.70;58.60;99996.00;692614;28;1236;-80
2022/04/23 00:21:52;;;;;;;37.23;23.53;;;;;;;11.68;58.79;100016.00;693288;28;1228;-80
2022/04/23 00:22:17;;;;;;;38.53;23.58;;;;;;;11.72;58.78;100009.06;686869;28;1395;-80
2022/04/23 00:22:38;;;;;;;39.42;23.98;;;;;;;11.63;58.92;100012.44;690023;28;1362;-80
2022/04/23 00:22:59;;;;;;;33.20;23.60;;;;;;;11.62;59.10;99997.63;687497;28;1540;-80
2022/04/23 00:23:20;;;;;;;33.83;23.50;;;;;;;11.65;58.65;100002.91;690203;28;1282;-80
2022/04/23 00:23:40;;;;;;;33.17;22.90;;;;;;;11.70;59.23;100022.13;686819;28;1287;-80
2022/04/23 00:24:01;;;;;;;32.40;22.73;;;;;;;11.69;58.93;100016.88;685129;28;1347;-79
2022/04/23 00:24:21;;;;;;;31.33;22.60;;;;;;;11.69;58.83;100009.94;687696;28;1335;-80
2022/04/23 00:24:43;;;;;;;31.30;23.10;;;;;;;11.69;59.11;100017.78;687883;28;990;-81
2022/04/23 00:25:05;;;;;;;33.13;23.60;;;;;;;11.62;59.00;100005.47;688618;28;1753;-81
2022/04/23 00:25:26;;;;;;;33.00;23.55;;;;;;;11.67;58.88;100011.63;693185;28;1384;-81
2022/04/23 00:25:50;;;;;;;31.85;23.33;;;;;;;11.62;58.71;99993.25;690582;28;1165;-81
2022/04/23 00:26:11;;;;;;;31.50;23.58;;;;;;;11.72;58.90;100016.91;687602;28;1528;-80
2022/04/23 00:26:32;;;;;;;32.80;23.63;;;;;;;11.68;58.79;100013.38;689905;28;1682;-81
2022/04/23 00:26:52;;;;;;;33.83;23.88;;;;;;;11.64;58.99;100002.00;690685;28;972;-82
2022/04/23 00:27:13;;;;;;;34.60;24.00;;;;;;;11.63;58.88;100002.84;688560;28;1663;-81
2022/04/23 00:27:34;;;;;;;34.55;24.23;;;;;;;11.67;58.59;100013.38;687965;28;1289;-80
2022/04/23 00:27:54;;;;;;;36.37;24.30;;;;;;;11.62;58.92;100005.47;685259;28;1308;-80
2022/04/23 00:28:15;;;;;;;35.28;24.05;;;;;;;11.62;59.11;100010.69;690136;28;1545;-80
2022/04/23 00:28:36;;;;;;;34.60;23.50;;;;;;;11.57;58.82;99997.56;690553;28;1195;-81
2022/04/23 00:28:56;;;;;;;32.60;23.10;;;;;;;11.58;59.11;99998.44;685151;28;1231;-80
2022/04/23 00:29:32;;;;;;;32.63;23.13;;;;;;;11.61;59.03;100007.19;692191;28;1892;-80
2022/04/23 00:29:53;;;;;;;31.42;23.08;;;;;;;11.57;58.94;99999.31;693080;28;1226;-80
2022/04/23 00:30:13;;;;;;;32.28;23.48;;;;;;;11.55;59.12;100006.25;693054;28;1192;-80
2022/04/23 00:30:34;;;;;;;31.30;23.17;;;;;;;11.57;59.16;100015.88;687895;28;787;-81
2022/04/23 00:30:54;;;;;;;32.78;23.85;;;;;;;11.55;59.16;100003.63;687737;28;1056;-81
2022/04/23 00:31:15;;;;;;;33.07;23.93;;;;;;;11.53;59.40;100006.22;686788;28;1142;-81
2022/04/23 00:31:36;;;;;;;33.78;23.73;;;;;;;11.54;58.96;100004.50;689557;28;1705;-80
2022/04/23 00:31:57;;;;;;;32.50;22.95;;;;;;;11.54;59.25;100004.50;687798;28;1350;-80
2022/04/23 00:32:17;;;;;;;32.53;22.90;;;;;;;11.52;59.18;99997.53;687140;28;1593;-80
2022/04/23 00:32:38;;;;;;;33.03;23.42;;;;;;;11.55;59.02;100008.88;687852;28;1117;-81
2022/04/23 00:33:00;;;;;;;34.80;23.83;;;;;;;11.51;59.03;100006.19;687767;28;1224;-81
2022/04/23 00:33:20;;;;;;;34.45;23.83;;;;;;;11.51;59.35;100000.09;690100;28;1264;-81
2022/04/23 00:33:41;;;;;;;33.92;23.30;;;;;;;11.48;59.34;100000.94;689561;28;1316;-80
2022/04/23 00:34:03;;;;;;;33.38;23.30;;;;;;;11.54;59.28;100004.50;687901;28;1099;-81
2022/04/23 00:34:25;;;;;;;34.17;23.67;;;;;;;11.54;59.06;100009.72;690552;28;1358;-81
2022/04/23 00:34:45;;;;;;;35.13;23.88;;;;;;;11.49;59.10;100000.09;690484;28;1264;-80
2022/04/23 00:35:06;;;;;;;34.17;23.58;;;;;;;11.51;59.31;100000.09;689994;28;1091;-81
2022/04/23 00:35:27;;;;;;;34.13;23.90;;;;;;;11.48;59.06;100005.28;690198;28;1308;-81
2022/04/23 00:35:51;;;;;;;32.60;24.10;;;;;;;11.47;59.03;100003.53;687908;28;1155;-80
2022/04/23 00:36:11;;;;;;;33.33;24.38;;;;;;;11.56;59.48;100015.84;687658;28;1142;-80
2022/04/23 00:36:33;;;;;;;32.85;24.02;;;;;;;11.48;59.17;100003.56;685275;28;1631;-80
2022/04/23 00:36:54;;;;;;;32.13;23.25;;;;;;;11.48;59.25;100003.56;690666;28;1028;-81
2022/04/23 00:37:14;;;;;;;32.25;22.77;;;;;;;11.52;58.86;100013.19;690307;28;1233;-80
2022/04/23 00:37:35;;;;;;;36.30;23.40;;;;;;;11.49;59.29;100007.91;687860;28;1128;-80
2022/04/23 00:37:56;;;;;;;37.13;23.60;;;;;;;11.46;59.12;100002.69;690537;28;1064;-81
2022/04/23 00:38:17;;;;;;;35.53;24.17;;;;;;;11.45;59.44;100010.47;687669;28;1202;-81
2022/04/23 00:38:39;;;;;;;36.45;23.23;;;;;;;11.43;59.44;99997.38;689769;28;1373;-81
2022/04/23 00:39:00;;;;;;;35.42;22.88;;;;;;;11.41;59.30;100006.94;693105;28;1310;-80
2022/04/23 00:39:20;;;;;;;35.70;22.80;;;;;;;11.40;59.38;99999.09;690225;28;1930;-81
2022/04/23 00:39:41;;;;;;;31.30;22.88;;;;;;;11.37;59.32;99997.34;681916;29;1267;-81
2022/04/23 00:40:06;;;;;;;31.80;23.67;;;;;;;11.43;59.55;100007.84;690258;28;1607;-80
2022/04/23 00:40:27;;;;;;;32.95;24.27;;;;;;;11.36;59.65;100000.78;690475;28;1111;-79
2022/04/23 00:40:48;;;;;;;32.90;24.40;;;;;;;11.36;59.32;100000.78;687770;28;1350;-80
2022/04/23 00:41:43;;;;;;;31.25;23.60;;;;;;;11.37;59.63;99999.94;689535;28;1259;-80
2022/04/23 00:41:52;;;;;;;31.65;23.20;;;;;;;11.37;59.58;100002.56;692261;28;1585;-81
2022/04/23 00:42:12;;;;;;;34.38;23.83;;;;;;;11.37;59.61;100005.19;688410;28;1527;-80
2022/04/23 00:42:48;;;;;;;33.40;23.67;;;;;;;11.41;59.58;100012.19;687780;28;799;-80
2022/04/23 00:43:24;;;;;;;34.50;24.17;;;;;;;11.35;59.65;99999.03;689329;28;1341;-80
2022/04/23 00:43:47;;;;;;;32.40;23.70;;;;;;;11.35;59.61;100013.00;685124;28;1126;-80
2022/04/23 00:44:08;;;;;;;31.38;23.08;;;;;;;11.34;59.79;100007.72;684987;28;1155;-80
2022/04/23 00:44:29;;;;;;;31.75;22.45;;;;;;;11.36;59.57;100011.22;685167;28;1157;-80
2022/04/23 00:44:49;;;;;;;32.77;23.00;;;;;;;11.37;59.97;100018.25;687708;28;1167;-80
2022/04/23 00:45:10;;;;;;;33.10;23.63;;;;;;;11.26;59.77;100004.16;687794;28;1092;-80
2022/04/23 00:45:31;;;;;;;33.03;24.23;;;;;;;11.25;59.60;100000.69;687882;28;831;-80
2022/04/23 00:45:51;;;;;;;31.67;23.63;;;;;;;11.31;59.62;100015.53;687756;28;970;-81
2022/04/23 00:46:12;;;;;;;31.25;22.85;;;;;;;11.33;59.77;100016.44;689899;28;1197;-80
2022/04/23 00:46:33;;;;;;;31.17;22.70;;;;;;;11.33;59.96;100021.66;687973;28;760;-80
2022/04/23 00:46:54;;;;;;;34.28;23.52;;;;;;;11.27;59.74;100018.97;687888;28;965;-80
2022/04/23 00:47:14;;;;;;;35.30;23.42;;;;;;;11.24;59.77;100015.47;686621;28;1032;-81
2022/04/23 00:47:35;;;;;;;35.80;23.30;;;;;;;11.26;60.12;100006.75;690520;28;1255;-80
2022/04/23 00:47:55;;;;;;;33.75;22.77;;;;;;;11.23;59.91;100011.09;691413;28;1688;-81
2022/04/23 00:48:16;;;;;;;32.95;23.48;;;;;;;11.31;60.23;100012.94;689894;28;1166;-80
2022/04/23 00:48:37;;;;;;;33.63;23.70;;;;;;;11.28;60.01;100010.25;693097;28;1162;-80
2022/04/23 00:49:00;;;;;;;33.88;23.55;;;;;;;11.32;59.65;100017.28;690043;28;1187;-80
2022/04/23 00:49:21;;;;;;;33.83;23.75;;;;;;;11.33;59.91;100017.31;685044;28;1352;-80
2022/04/23 00:49:41;;;;;;;34.00;24.27;;;;;;;11.36;59.74;100024.28;687102;28;1266;-81
2022/04/23 00:50:03;;;;;;;32.42;23.95;;;;;;;11.31;59.91;100010.31;690404;28;1292;-80
2022/04/23 00:50:23;;;;;;;31.85;23.23;;;;;;;11.24;59.84;100006.72;687762;28;1148;-81
2022/04/23 00:50:44;;;;;;;32.20;22.65;;;;;;;11.29;60.04;100020.72;682485;28;1365;-80
2022/04/23 00:51:04;;;;;;;33.00;22.85;;;;;;;11.30;59.87;100019.03;685770;28;1224;-80
2022/04/23 00:51:29;;;;;;;33.20;23.10;;;;;;;11.22;60.07;100003.22;684937;28;1325;-80
2022/04/23 00:51:50;;;;;;;33.85;23.70;;;;;;;11.20;59.83;99997.97;687592;28;949;-80
2022/04/23 00:52:11;;;;;;;36.05;24.80;;;;;;;11.20;59.94;100004.94;688851;28;1403;-80
2022/04/23 00:52:32;;;;;;;38.83;24.88;;;;;;;11.23;59.85;100010.19;693452;28;815;-80
2022/04/23 00:52:58;;;;;;;35.88;23.55;;;;;;;11.26;60.18;100019.81;689953;28;1331;-80
2022/04/23 00:53:21;;;;;;;34.38;22.83;;;;;;;11.24;60.25;100023.28;692693;28;2034;-81
2022/04/23 00:53:41;;;;;;;33.10;22.70;;;;;;;11.25;60.16;100018.97;693210;28;1066;-80
2022/04/23 00:54:10;;;;;;;33.78;22.60;;;;;;;11.29;60.10;100009.44;694543;28;1236;-80
2022/04/23 00:54:30;;;;;;;33.78;22.70;;;;;;;11.21;60.02;100010.22;690099;28;1243;-80
2022/04/23 00:54:51;;;;;;;31.90;22.57;;;;;;;11.31;59.94;100019.00;690445;28;1029;-80
2022/04/23 00:55:12;;;;;;;31.52;22.63;;;;;;;11.24;59.69;100002.41;687624;28;1138;-80
2022/04/23 00:55:33;;;;;;;32.95;23.27;;;;;;;11.26;59.76;100011.97;690479;28;1494;-80
2022/04/23 00:55:54;;;;;;;32.80;23.10;;;;;;;11.24;60.16;100007.63;693280;28;936;-80
2022/04/23 00:56:16;;;;;;;34.55;22.73;;;;;;;11.27;59.81;100012.00;689991;28;1460;-80
2022/04/23 00:56:39;;;;;;;34.80;23.00;;;;;;;11.26;59.77;100010.25;685121;28;1399;-80
2022/04/23 00:57:00;;;;;;;37.03;23.23;;;;;;;11.26;59.74;100011.97;687680;28;1188;-80
2022/04/23 00:57:21;;;;;;;34.35;23.05;;;;;;;11.23;60.14;100007.59;695765;28;1485;-80
2022/04/23 00:57:42;;;;;;;33.80;22.90;;;;;;;11.22;59.81;100009.34;695940;28;1191;-80
2022/04/23 00:58:03;;;;;;;33.00;23.05;;;;;;;11.29;59.98;100012.03;690342;28;1227;-80
2022/04/23 00:58:26;;;;;;;32.05;22.30;;;;;;;11.26;59.93;100017.22;687842;28;1312;-81
2022/04/23 00:58:47;;;;;;;31.80;22.50;;;;;;;11.20;60.00;100005.81;690351;28;1307;-80
2022/04/23 00:59:10;;;;;;;32.50;22.57;;;;;;;11.24;60.00;100018.06;685679;28;1242;-81
2022/04/23 00:59:31;;;;;;;33.20;23.33;;;;;;;11.20;60.19;100011.03;689931;28;1912;-82
2022/04/23 00:59:52;;;;;;;33.50;23.60;;;;;;;11.22;59.83;100009.34;684960;28;1145;-80
2022/04/23 01:00:13;;;;;;;33.03;23.83;;;;;;;11.16;60.15;100009.25;687707;28;1729;-80
2022/04/23 01:00:34;;;;;;;32.45;23.70;;;;;;;11.23;59.68;100018.94;693097;28;1315;-80
2022/04/23 01:00:54;;;;;;;31.23;23.00;;;;;;;11.14;60.12;100005.75;690118;28;1319;-80
2022/04/23 01:01:15;;;;;;;30.45;22.75;;;;;;;11.21;60.33;100020.66;691841;28;1175;-80
2022/04/23 01:01:36;;;;;;;31.40;23.43;;;;;;;11.22;60.24;100018.91;690287;28;1191;-81
2022/04/23 01:01:57;;;;;;;32.38;23.60;;;;;;;11.13;59.90;99998.78;693374;28;717;-81
2022/04/23 01:02:17;;;;;;;32.78;23.42;;;;;;;11.20;60.24;100016.25;690906;28;2437;-80
2022/04/23 01:02:38;;;;;;;33.72;23.30;;;;;;;11.21;60.31;100012.81;687543;28;2575;-80
2022/04/23 01:02:59;;;;;;;33.42;24.08;;;;;;;11.22;60.18;100024.13;690511;28;748;-81
2022/04/23 01:03:21;;;;;;;34.00;24.03;;;;;;;11.20;60.20;100011.03;687256;28;2411;-80
2022/04/23 01:03:45;;;;;;;34.53;23.52;;;;;;;11.20;59.92;100003.19;684820;28;1264;-80
2022/04/23 01:04:07;;;;;;;34.15;23.40;;;;;;;11.19;59.97;100009.28;688257;28;1417;-81
2022/04/23 01:04:30;;;;;;;31.85;22.95;;;;;;;11.15;60.13;100002.28;690278;28;799;-80
2022/04/23 01:04:53;;;;;;;31.60;23.25;;;;;;;11.14;60.05;99995.31;684721;28;1265;-80
2022/04/23 01:05:14;;;;;;;33.28;23.30;;;;;;;11.28;60.09;100018.09;683856;28;2256;-81
2022/04/23 01:05:35;;;;;;;32.72;23.20;;;;;;;11.30;60.15;100027.72;686757;28;1013;-80
2022/04/23 01:05:55;;;;;;;32.63;23.60;;;;;;;11.24;60.17;100018.06;683081;28;1022;-80
2022/04/23 01:06:18;;;;;;;32.00;23.80;;;;;;;11.16;60.10;100009.25;686421;28;1441;-80
2022/04/23 01:06:39;;;;;;;32.80;23.90;;;;;;;11.22;60.60;100005.84;691121;28;1026;-81
2022/04/23 01:06:59;;;;;;;33.05;23.35;;;;;;;11.27;59.99;100012.00;695817;28;1289;-80
2022/04/23 01:07:20;;;;;;;38.70;22.77;;;;;;;11.33;59.97;100012.09;693081;28;1110;-80
2022/04/23 01:07:44;;;;;;;39.53;22.98;;;;;;;11.18;60.02;100002.31;683947;28;1258;-80
2022/04/23 01:08:05;;;;;;;38.28;22.80;;;;;;;11.28;60.10;100003.31;682103;28;1756;-80
2022/04/23 01:08:26;;;;;;;32.97;22.85;;;;;;;11.33;60.16;100013.81;682404;29;1187;-80
2022/04/23 01:08:47;;;;;;;33.03;22.65;;;;;;;11.37;60.27;100010.41;685077;28;1364;-81
2022/04/23 01:09:08;;;;;;;33.07;23.00;;;;;;;11.36;60.32;100001.69;687353;28;1569;-80
2022/04/23 01:09:29;;;;;;;33.40;23.52;;;;;;;11.44;60.24;100003.50;684817;28;1408;-80
2022/04/23 01:09:51;;;;;;;32.90;23.73;;;;;;;11.47;59.90;99999.19;684780;28;1162;-80
2022/04/23 01:10:12;;;;;;;31.75;22.77;;;;;;;11.57;59.96;100004.53;689100;28;1658;-81
2022/04/23 01:10:33;;;;;;;31.23;22.63;;;;;;;11.65;59.93;100018.59;687894;28;1188;-80
2022/04/23 01:10:54;;;;;;;31.38;22.50;;;;;;;11.67;59.81;100006.41;686519;28;1270;-80
2022/04/23 01:11:15;;;;;;;32.53;23.40;;;;;;;11.62;59.65;100002.84;688700;28;1710;-80
2022/04/23 01:11:36;;;;;;;34.27;23.70;;;;;;;11.72;59.77;100011.69;693123;28;1133;-80
2022/04/23 01:11:59;;;;;;;34.78;23.65;;;;;;;11.67;59.47;100003.78;687859;28;1513;-80
2022/04/23 01:12:19;;;;;;;35.13;23.17;;;;;;;11.66;59.48;99999.44;689957;28;1672;-80
2022/04/23 01:12:42;;;;;;;32.70;22.80;;;;;;;11.72;59.67;99999.50;690464;28;1034;-80
2022/04/23 01:13:03;;;;;;;31.55;22.45;;;;;;;11.79;59.67;100010.88;684910;28;1299;-80
2022/04/23 01:13:25;;;;;;;31.77;22.65;;;;;;;11.77;59.38;100008.28;690590;28;1192;-80
2022/04/23 01:13:46;;;;;;;32.25;23.08;;;;;;;11.78;59.34;99994.34;693066;28;1059;-81
2022/04/23 01:14:07;;;;;;;32.05;23.15;;;;;;;11.83;59.48;100007.47;693778;28;1218;-80
2022/04/23 01:14:27;;;;;;;32.40;23.50;;;;;;;11.79;59.46;100006.56;690552;28;869;-80
2022/04/23 01:15:02;;;;;;;33.27;23.83;;;;;;;11.83;59.02;100011.81;690363;28;1277;-80
2022/04/23 01:15:22;;;;;;;32.92;23.33;;;;;;;11.88;59.41;100017.97;686761;28;1735;-80
2022/04/23 01:16:05;;;;;;;32.67;22.75;;;;;;;11.88;59.06;100021.47;687810;28;964;-80
2022/04/23 01:16:25;;;;;;;33.20;22.00;;;;;;;11.77;59.28;100005.66;684931;28;919;-80
2022/04/23 01:16:47;;;;;;;32.53;21.88;;;;;;;11.68;59.39;99987.25;687747;28;1346;-80
2022/04/23 01:17:07;;;;;;;32.92;22.42;;;;;;;11.80;59.39;100004.81;690684;28;1558;-80
2022/04/23 01:17:28;;;;;;;31.33;22.73;;;;;;;11.72;59.44;99996.88;692550;28;909;-80
2022/04/23 01:17:49;;;;;;;32.30;23.00;;;;;;;11.69;59.58;99994.25;687758;28;1542;-80
2022/04/23 01:18:10;;;;;;;34.00;22.83;;;;;;;11.74;59.35;99999.53;692322;28;1688;-81
2022/04/23 01:18:31;;;;;;;33.30;22.23;;;;;;;11.72;59.38;99993.38;692985;28;1707;-81
2022/04/23 01:18:52;;;;;;;31.98;21.85;;;;;;;11.82;59.30;100010.94;690355;28;1266;-80
2022/04/23 01:19:13;;;;;;;30.38;21.58;;;;;;;11.74;59.26;99989.94;687484;28;1714;-80
2022/04/23 01:19:33;;;;;;;31.30;21.97;;;;;;;11.80;59.14;100002.19;687248;28;1919;-81
2022/04/23 01:19:54;;;;;;;32.13;22.40;;;;;;;11.83;59.21;100004.84;687448;28;1211;-81
2022/04/23 01:20:15;;;;;;;32.90;22.70;;;;;;;11.77;59.23;99992.59;693031;28;1205;-81
2022/04/23 01:20:36;;;;;;;32.72;22.70;;;;;;;11.74;59.38;99987.31;688916;28;1191;-81
2022/04/23 01:21:01;;;;;;;34.50;23.23;;;;;;;11.87;59.39;100011.00;685070;28;1251;-81
2022/04/23 01:21:22;;;;;;;34.15;23.52;;;;;;;11.83;59.35;100007.47;679692;29;848;-81
2022/04/23 01:21:42;;;;;;;33.45;22.75;;;;;;;11.81;59.34;99997.84;682409;29;944;-81
2022/04/23 01:22:03;;;;;;;32.67;22.60;;;;;;;11.77;59.24;99987.38;684903;28;1205;-80
2022/04/23 01:22:24;;;;;;;32.85;22.20;;;;;;;11.89;59.16;100001.41;682413;28;1253;-80
2022/04/23 01:22:45;;;;;;;33.28;22.73;;;;;;;11.93;59.09;100000.59;687538;28;1571;-80
2022/04/23 01:23:06;;;;;;;33.00;22.98;;;;;;;11.86;59.40;99991.78;692988;28;1715;-81
2022/04/23 01:23:27;;;;;;;36.30;24.00;;;;;;;11.92;58.88;99993.59;693177;28;1315;-80
2022/04/23 01:23:49;;;;;;;34.90;23.30;;;;;;;11.90;59.11;99992.72;687694;28;1159;-81
2022/04/23 01:24:09;;;;;;;33.83;22.60;;;;;;;11.95;58.87;100000.59;686022;28;1088;-80
2022/04/23 01:24:34;;;;;;;31.25;22.58;;;;;;;11.99;58.64;100008.47;687675;28;1710;-80
2022/04/23 01:24:55;;;;;;;29.60;21.95;;;;;;;11.90;58.88;99993.59;685024;28;1369;-81
2022/04/23 01:25:16;;;;;;;28.77;21.73;;;;;;;11.91;58.65;99991.84;684699;28;1790;-80
2022/04/23 01:25:37;;;;;;;29.98;21.85;;;;;;;11.93;58.88;99997.97;687774;28;1024;-81
2022/04/23 01:25:58;;;;;;;34.87;21.73;;;;;;;11.90;58.64;99987.47;690477;28;1347;-80
2022/04/23 01:26:29;;;;;;;35.75;22.10;;;;;;;11.92;58.96;99991.88;690110;28;1630;-80
2022/04/23 01:26:50;;;;;;;31.15;22.40;;;;;;;11.94;58.84;100002.34;693030;28;994;-80
2022/04/23 01:27:10;;;;;;;30.20;22.27;;;;;;;11.96;58.83;99998.00;693318;28;1090;-80
2022/04/23 01:27:34;;;;;;;30.70;22.45;;;;;;;11.92;58.73;99996.19;690561;28;795;-81
2022/04/23 01:27:55;;;;;;;30.50;22.50;;;;;;;11.88;58.92;99989.22;690497;28;1737;-80
2022/04/23 01:28:18;;;;;;;29.92;22.75;;;;;;;11.97;58.85;100004.97;690401;28;1062;-80
2022/04/23 01:28:39;;;;;;;28.23;22.02;;;;;;;11.90;58.82;99996.22;687794;28;989;-80
2022/04/23 01:29:00;;;;;;;28.45;21.55;;;;;;;11.92;59.07;99994.47;688867;28;1546;-80
2022/04/23 01:29:22;;;;;;;30.15;21.70;;;;;;;11.95;58.99;100001.47;687350;28;1484;-80
2022/04/23 01:29:42;;;;;;;29.63;21.60;;;;;;;11.90;58.87;99990.09;687286;28;1050;-80
2022/04/23 01:30:05;;;;;;;30.57;21.73;;;;;;;12.00;58.66;100007.66;690248;28;1532;-80
2022/04/23 01:30:25;;;;;;;30.67;22.08;;;;;;;11.91;59.02;99997.97;690276;28;1144;-80
2022/04/23 01:30:51;;;;;;;31.27;22.00;;;;;;;11.93;58.92;99993.63;684996;28;1322;-81
2022/04/23 01:31:11;;;;;;;30.70;21.70;;;;;;;12.00;58.97;100007.66;687548;28;1088;-80
2022/04/23 01:31:32;;;;;;;29.80;21.27;;;;;;;12.04;59.19;100006.78;690232;28;1174;-80
2022/04/23 01:31:53;;;;;;;28.77;20.70;;;;;;;11.95;58.71;99997.97;685772;28;1251;-81
2022/04/23 01:32:13;;;;;;;30.03;20.90;;;;;;;12.00;59.06;100005.03;689154;28;1183;-81
2022/04/23 01:32:34;;;;;;;30.63;21.17;;;;;;;12.03;58.78;100007.66;690445;28;848;-80
2022/04/23 01:32:54;;;;;;;31.37;22.10;;;;;;;11.97;58.84;99994.53;690393;28;1035;-80
2022/04/23 01:33:15;;;;;;;30.60;21.58;;;;;;;11.97;58.57;99994.53;689285;28;1661;-80
2022/04/23 01:33:36;;;;;;;30.42;22.00;;;;;;;12.01;58.89;100001.56;685043;28;1272;-81
2022/04/23 01:33:56;;;;;;;31.70;22.40;;;;;;;11.95;58.85;99996.25;685094;28;1024;-81
2022/04/23 01:34:18;;;;;;;30.83;22.90;;;;;;;12.01;59.04;100006.78;689876;28;1654;-80
2022/04/23 01:34:38;;;;;;;30.37;22.77;;;;;;;11.98;58.83;99995.41;690370;28;1111;-80
2022/04/23 01:34:59;;;;;;;30.95;22.95;;;;;;;12.00;59.02;100002.41;682966;28;1301;-81
2022/04/23 01:35:20;;;;;;;30.30;22.55;;;;;;;11.99;59.12;100005.88;687504;28;1044;-81
2022/04/23 01:35:40;;;;;;;30.80;22.80;;;;;;;12.00;58.92;99996.28;684996;28;1476;-81
2022/04/23 01:36:02;;;;;;;29.75;22.35;;;;;;;12.02;58.99;100005.91;682650;28;1565;-80
2022/04/23 01:36:23;;;;;;;31.35;22.65;;;;;;;11.96;58.61;99992.78;682136;29;1434;-80
2022/04/23 01:36:43;;;;;;;31.55;22.15;;;;;;;12.00;58.97;99989.34;684865;28;1290;-80
2022/04/23 01:37:04;;;;;;;30.70;21.83;;;;;;;11.95;59.23;100001.47;685187;28;1605;-80
2022/04/23 01:37:25;;;;;;;29.30;21.07;;;;;;;11.96;59.17;100003.22;685019;28;901;-80
2022/04/23 01:37:45;;;;;;;29.33;21.48;;;;;;;11.88;58.74;99997.94;687804;28;997;-81
2022/04/23 01:38:06;;;;;;;28.87;21.27;;;;;;;11.93;58.93;99993.63;687928;28;1357;-81
2022/04/23 01:38:26;;;;;;;29.02;21.55;;;;;;;12.02;59.01;100008.53;690421;28;724;-82
2022/04/23 01:38:47;;;;;;;28.95;21.67;;;;;;;11.91;59.13;99997.06;687685;28;1098;-80
2022/04/23 01:39:19;;;;;;;30.40;22.50;;;;;;;11.89;58.94;99994.47;685726;28;1509;-81
2022/04/23 01:39:40;;;;;;;29.80;22.48;;;;;;;11.90;59.07;99992.72;687237;28;1288;-80
2022/04/23 01:40:01;;;;;;;29.17;21.58;;;;;;;11.82;59.28;99987.41;685683;28;1508;-80
2022/04/23 01:40:22;;;;;;;30.58;22.20;;;;;;;11.85;59.12;99976.13;689989;28;1729;-80
2022/04/23 01:40:43;;;;;;;30.00;21.95;;;;;;;11.86;59.32;99991.78;687701;28;1286;-80
2022/04/23 01:41:03;;;;;;;29.40;22.33;;;;;;;11.95;59.25;99998.88;687736;28;1083;-80
2022/04/23 01:41:24;;;;;;;29.60;22.10;;;;;;;12.02;59.16;99998.06;684849;28;1355;-80